Time;durP1;ratioP1;P1;durP2;ratioP2;P2;SDS_P1;SDS_P2;PMS_P1;PMS_P2;Temp;Humidity;BMP_temperature;BMP_pressure;BME280_temperature;BME280_humidity;BME280_pressure;Samples;Min_cycle;Max_cycle;Signal;HPM_P1;HPM_P2
2021/08/29 00:02:09;;;;;;;;;;;15.90;99.90;;;;;;1822467;79;20468;-66
2021/08/29 00:04:36;;;;;;;;;;;16.00;99.90;;;;;;1825492;78;20159;-66
2021/08/29 00:07:03;;;;;;;;;;;15.90;99.90;;;;;;1829012;78;20264;-66
2021/08/29 00:09:30;;;;;;;;;;;15.90;99.90;;;;;;1828945;78;20418;-66
2021/08/29 00:11:56;;;;;;;;;;;15.90;99.90;;;;;;1827324;78;20188;-66
2021/08/29 00:14:23;;;;;;;;;;;15.90;99.90;;;;;;1823743;78;20464;-66
2021/08/29 00:16:50;;;;;;;;;;;15.90;99.90;;;;;;1815439;77;20195;-66
2021/08/29 00:19:17;;;;;;;;;;;15.90;99.90;;;;;;1837998;77;20208;-66
2021/08/29 00:21:44;;;;;;;;;;;15.90;99.90;;;;;;1827967;78;20178;-66
2021/08/29 00:24:11;;;;;;;;;;;15.90;99.90;;;;;;1813671;78;20203;-66
2021/08/29 00:26:38;;;;;;;;;;;15.80;99.90;;;;;;1826260;78;20218;-66
2021/08/29 00:29:04;;;;;;;;;;;15.80;99.90;;;;;;1828765;77;20215;-66
2021/08/29 00:31:31;;;;;;;;;;;15.80;99.90;;;;;;1823569;78;20204;-66
2021/08/29 00:33:58;;;;;;;;;;;15.80;99.90;;;;;;1827634;78;20444;-66
2021/08/29 00:36:25;;;;;;;;;;;15.80;99.90;;;;;;1828263;77;20151;-66
2021/08/29 00:38:52;;;;;;;;;;;15.80;99.90;;;;;;1834215;78;20759;-66
2021/08/29 00:41:19;;;;;;;;;;;15.80;99.90;;;;;;1824932;78;20425;-66
2021/08/29 00:43:45;;;;;;;;;;;15.80;99.90;;;;;;1808731;78;20188;-66
2021/08/29 00:46:12;;;;;;;;;;;15.70;99.90;;;;;;1800637;78;20474;-66
2021/08/29 00:48:41;;;;;;;;;;;15.80;99.90;;;;;;1826884;77;20182;-66
2021/08/29 00:51:07;;;;;;;;;;;15.80;99.90;;;;;;1811868;79;20784;-66
2021/08/29 00:53:34;;;;;;;;;;;15.80;99.90;;;;;;1809623;79;20184;-66
2021/08/29 00:56:01;;;;;;;;;;;15.80;99.90;;;;;;1800728;79;20434;-66
2021/08/29 00:58:28;;;;;;;;;;;15.80;99.90;;;;;;1813711;78;20187;-66
2021/08/29 01:00:56;;;;;;;;;;;15.80;99.90;;;;;;1807430;79;20208;-66
2021/08/29 01:03:24;;;;;;;;;;;15.80;99.90;;;;;;1816064;78;20184;-67
2021/08/29 01:05:53;;;;;;;;;;;15.80;99.90;;;;;;1807744;79;20129;-66
2021/08/29 01:08:20;;;;;;;;;;;15.80;99.90;;;;;;1840283;78;20123;-67
2021/08/29 01:10:48;;;;;;;;;;;15.80;99.90;;;;;;1835771;78;20195;-66
2021/08/29 01:13:16;;;;;;;;;;;15.80;99.90;;;;;;1836719;78;20178;-66
2021/08/29 01:15:44;;;;;;;;;;;15.80;99.90;;;;;;1837637;78;20175;-66
2021/08/29 01:18:12;;;;;;;;;;;15.80;99.90;;;;;;1843206;78;20170;-69
2021/08/29 01:20:40;;;;;;;;;;;15.80;99.90;;;;;;1838096;78;20232;-66
2021/08/29 01:23:08;;;;;;;;;;;15.80;99.90;;;;;;1855271;77;20168;-67
2021/08/29 01:25:36;;;;;;;;;;;15.80;99.90;;;;;;1810153;78;20199;-67
2021/08/29 01:28:17;;;;;;;;;;;15.80;99.90;;;;;;1840999;78;20256;-67
2021/08/29 01:30:45;;;;;;;;;;;15.70;99.90;;;;;;1800561;78;20231;-68
2021/08/29 01:33:13;;;;;;;;;;;15.60;99.90;;;;;;1788283;80;20221;-68
2021/08/29 01:35:40;;;;;;;;;;;15.60;99.90;;;;;;1827787;78;20176;-66
2021/08/29 01:38:09;;;;;;;;;;;15.60;99.90;;;;;;1828758;78;20175;-66
2021/08/29 01:40:37;;;;;;;;;;;15.60;99.90;;;;;;1826540;77;20129;-68
2021/08/29 01:43:04;;;;;;;;;;;15.60;99.90;;;;;;1827858;78;20175;-66
2021/08/29 01:45:31;;;;;;;;;;;15.50;99.90;;;;;;1829190;78;20117;-66
2021/08/29 01:47:59;;;;;;;;;;;15.50;99.90;;;;;;1827605;78;20124;-66
2021/08/29 01:50:26;;;;;;;;;;;15.50;99.90;;;;;;1828796;78;20202;-66
2021/08/29 01:52:53;;;;;;;;;;;15.50;99.90;;;;;;1828634;78;20183;-66
2021/08/29 01:55:20;;;;;;;;;;;15.50;99.90;;;;;;1826668;78;20491;-66
2021/08/29 01:57:47;;;;;;;;;;;15.40;99.90;;;;;;1827534;78;20188;-67
2021/08/29 02:00:13;;;;;;;;;;;15.40;99.90;;;;;;1827033;78;20211;-67
2021/08/29 02:02:41;;;;;;;;;;;15.30;99.90;;;;;;1799228;78;20494;-66
2021/08/29 02:05:08;;;;;;;;;;;15.30;99.90;;;;;;1800853;78;20526;-67
2021/08/29 02:07:42;;;;;;;;;;;15.30;99.90;;;;;;1829223;78;20378;-66
2021/08/29 02:10:10;;;;;;;;;;;15.30;99.90;;;;;;1827417;78;20186;-67
2021/08/29 02:12:48;;;;;;;;;;;15.30;99.90;;;;;;1827017;78;20152;-67
2021/08/29 02:15:16;;;;;;;;;;;15.30;99.90;;;;;;1828251;78;20124;-67
2021/08/29 02:17:44;;;;;;;;;;;15.30;99.90;;;;;;1829023;78;20204;-67
2021/08/29 02:20:12;;;;;;;;;;;15.30;99.90;;;;;;1810172;78;20170;-67
2021/08/29 02:22:39;;;;;;;;;;;15.30;99.90;;;;;;1797733;80;20166;-67
2021/08/29 02:25:07;;;;;;;;;;;15.30;99.90;;;;;;1815752;78;20168;-66
2021/08/29 02:27:38;;;;;;;;;;;15.30;99.90;;;;;;1827598;78;20187;-67
2021/08/29 02:30:06;;;;;;;;;;;15.30;99.90;;;;;;1827789;77;20179;-67
2021/08/29 02:32:34;;;;;;;;;;;15.30;99.90;;;;;;1838590;78;20234;-67
2021/08/29 02:35:01;;;;;;;;;;;15.30;99.90;;;;;;1803775;79;20390;-67
2021/08/29 02:37:30;;;;;;;;;;;15.30;99.90;;;;;;1811404;79;20209;-66
2021/08/29 02:39:58;;;;;;;;;;;15.30;99.90;;;;;;1802209;79;20471;-66
2021/08/29 02:42:26;;;;;;;;;;;15.30;99.90;;;;;;1790951;79;20180;-66
2021/08/29 02:44:53;;;;;;;;;;;15.30;99.90;;;;;;1809142;79;20184;-66
2021/08/29 02:47:20;;;;;;;;;;;15.30;99.90;;;;;;1801036;79;20195;-67
2021/08/29 02:49:48;;;;;;;;;;;15.30;99.90;;;;;;1796718;78;20169;-67
2021/08/29 02:52:19;;;;;;;;;;;15.30;99.90;;;;;;1820815;78;20161;-67
2021/08/29 02:54:46;;;;;;;;;;;15.30;99.90;;;;;;1795765;79;20165;-66
2021/08/29 02:57:14;;;;;;;;;;;15.30;99.90;;;;;;1811652;78;20165;-67
2021/08/29 02:59:41;;;;;;;;;;;15.30;99.90;;;;;;1840025;78;20226;-66
2021/08/29 03:02:09;;;;;;;;;;;15.30;99.90;;;;;;1806243;78;20136;-66
2021/08/29 03:04:36;;;;;;;;;;;15.30;99.90;;;;;;1844547;78;20154;-66
2021/08/29 03:07:03;;;;;;;;;;;15.30;99.90;;;;;;1840424;78;20217;-67
2021/08/29 03:09:33;;;;;;;;;;;15.30;99.90;;;;;;1832395;78;20128;-66
2021/08/29 03:11:59;;;;;;;;;;;15.30;99.90;;;;;;1783931;78;20428;-66
2021/08/29 03:14:26;;;;;;;;;;;15.30;99.90;;;;;;1831267;78;20400;-67
2021/08/29 03:16:53;;;;;;;;;;;15.30;99.90;;;;;;1814705;78;20184;-69
2021/08/29 03:19:20;;;;;;;;;;;15.30;99.90;;;;;;1841556;77;20206;-66
2021/08/29 03:21:47;;;;;;;;;;;15.20;99.90;;;;;;1804886;78;20404;-67
2021/08/29 03:24:14;;;;;;;;;;;15.30;99.90;;;;;;1843151;77;20478;-67
2021/08/29 03:26:41;;;;;;;;;;;15.30;99.90;;;;;;1840686;78;20135;-67
2021/08/29 03:29:08;;;;;;;;;;;15.30;99.90;;;;;;1823787;78;20511;-66
2021/08/29 03:31:35;;;;;;;;;;;15.20;99.90;;;;;;1836328;78;20383;-66
2021/08/29 03:34:02;;;;;;;;;;;15.30;99.90;;;;;;1791648;79;20194;-66
2021/08/29 03:36:30;;;;;;;;;;;15.30;99.90;;;;;;1813162;79;20178;-66
2021/08/29 03:38:58;;;;;;;;;;;15.20;99.90;;;;;;1803552;79;20180;-66
2021/08/29 03:41:25;;;;;;;;;;;15.30;99.90;;;;;;1837743;78;20392;-66
2021/08/29 03:43:51;;;;;;;;;;;15.30;99.90;;;;;;1794907;79;20196;-67
2021/08/29 03:46:18;;;;;;;;;;;15.30;99.90;;;;;;1837207;78;20201;-67
2021/08/29 03:48:45;;;;;;;;;;;15.20;99.90;;;;;;1832065;78;20127;-66
2021/08/29 03:51:14;;;;;;;;;;;15.20;99.90;;;;;;1831576;78;20202;-67
2021/08/29 03:53:41;;;;;;;;;;;15.20;99.90;;;;;;1811510;79;20125;-67
2021/08/29 03:56:09;;;;;;;;;;;15.30;99.90;;;;;;1828079;78;20186;-67
2021/08/29 03:58:38;;;;;;;;;;;15.20;99.90;;;;;;1810206;77;20191;-67
2021/08/29 04:01:05;;;;;;;;;;;15.20;99.90;;;;;;1839567;77;20411;-66
2021/08/29 04:03:32;;;;;;;;;;;15.20;99.90;;;;;;1840518;78;20260;-66
2021/08/29 04:06:00;;;;;;;;;;;15.20;99.90;;;;;;1841439;78;20193;-66
2021/08/29 04:08:30;;;;;;;;;;;15.30;99.90;;;;;;1840936;76;20115;-66
2021/08/29 04:10:59;;;;;;;;;;;15.30;99.90;;;;;;1840487;77;20530;-66
2021/08/29 04:13:27;;;;;;;;;;;15.20;99.90;;;;;;1841279;78;20134;-66
2021/08/29 04:15:55;;;;;;;;;;;15.20;99.90;;;;;;1840709;78;20174;-66
2021/08/29 04:18:22;;;;;;;;;;;15.20;99.90;;;;;;1843282;78;20154;-66
2021/08/29 04:20:49;;;;;;;;;;;15.30;99.90;;;;;;1839584;78;20459;-67
2021/08/29 04:23:16;;;;;;;;;;;15.30;99.90;;;;;;1823822;78;20407;-67
2021/08/29 04:25:43;;;;;;;;;;;15.20;99.90;;;;;;1840871;78;20189;-67
2021/08/29 04:28:10;;;;;;;;;;;15.30;99.90;;;;;;1840377;78;20119;-66
2021/08/29 04:30:37;;;;;;;;;;;15.30;99.90;;;;;;1807508;78;20528;-67
2021/08/29 04:33:04;;;;;;;;;;;15.20;99.90;;;;;;1843329;78;20458;-67
2021/08/29 04:35:32;;;;;;;;;;;15.30;99.90;;;;;;1801245;79;20207;-66
2021/08/29 04:37:59;;;;;;;;;;;15.20;99.90;;;;;;1812268;78;20176;-67
2021/08/29 04:40:26;;;;;;;;;;;15.20;99.90;;;;;;1805799;78;20176;-67
2021/08/29 04:42:52;;;;;;;;;;;15.30;99.90;;;;;;1787421;79;20123;-67
2021/08/29 04:45:19;;;;;;;;;;;15.20;99.90;;;;;;1832019;78;20197;-67
2021/08/29 04:47:46;;;;;;;;;;;15.20;99.90;;;;;;1771773;81;20124;-67
2021/08/29 04:50:13;;;;;;;;;;;15.20;99.90;;;;;;1805575;79;20277;-66
2021/08/29 04:52:40;;;;;;;;;;;15.20;99.90;;;;;;1814630;78;20248;-67
2021/08/29 04:55:07;;;;;;;;;;;15.20;99.90;;;;;;1794470;80;20207;-66
2021/08/29 04:57:34;;;;;;;;;;;15.20;99.90;;;;;;1833762;78;20201;-66
2021/08/29 05:00:01;;;;;;;;;;;15.20;99.90;;;;;;1840053;78;20155;-67
2021/08/29 05:02:28;;;;;;;;;;;15.20;99.90;;;;;;1837033;77;20250;-67
2021/08/29 05:04:54;;;;;;;;;;;15.20;99.90;;;;;;1819784;79;20220;-66
2021/08/29 05:07:21;;;;;;;;;;;15.20;99.90;;;;;;1791575;79;20168;-67
2021/08/29 05:09:49;;;;;;;;;;;15.20;99.90;;;;;;1829136;77;20517;-66
2021/08/29 05:12:16;;;;;;;;;;;15.10;99.90;;;;;;1824366;78;20491;-67
2021/08/29 05:14:43;;;;;;;;;;;15.20;99.90;;;;;;1797526;80;20633;-66
2021/08/29 05:17:10;;;;;;;;;;;15.10;99.90;;;;;;1827830;78;20175;-66
2021/08/29 05:19:37;;;;;;;;;;;15.20;99.90;;;;;;1821714;78;20438;-66
2021/08/29 05:22:03;;;;;;;;;;;15.20;99.90;;;;;;1824450;77;20128;-67
2021/08/29 05:24:30;;;;;;;;;;;15.20;99.90;;;;;;1799245;78;20209;-66
2021/08/29 05:26:57;;;;;;;;;;;15.20;99.90;;;;;;1826267;78;20155;-66
2021/08/29 05:29:24;;;;;;;;;;;15.20;99.90;;;;;;1827926;77;20190;-66
2021/08/29 05:31:51;;;;;;;;;;;15.20;99.90;;;;;;1827832;78;20203;-67
2021/08/29 05:34:17;;;;;;;;;;;15.20;99.90;;;;;;1818057;78;20115;-66
2021/08/29 05:36:44;;;;;;;;;;;15.20;99.90;;;;;;1793067;80;20439;-66
2021/08/29 05:39:11;;;;;;;;;;;15.20;99.90;;;;;;1806839;78;20116;-66
2021/08/29 05:41:38;;;;;;;;;;;15.20;99.90;;;;;;1828888;78;20435;-66
2021/08/29 05:44:05;;;;;;;;;;;15.20;99.90;;;;;;1827302;78;20234;-66
2021/08/29 05:46:32;;;;;;;;;;;15.20;99.90;;;;;;1829029;78;20182;-66
2021/08/29 05:48:58;;;;;;;;;;;15.20;99.90;;;;;;1806917;78;20211;-66
2021/08/29 05:51:25;;;;;;;;;;;15.20;99.90;;;;;;1827633;78;20186;-66
2021/08/29 05:53:52;;;;;;;;;;;15.20;99.90;;;;;;1816864;78;20129;-66
2021/08/29 05:56:19;;;;;;;;;;;15.20;99.90;;;;;;1811239;79;20178;-66
2021/08/29 05:58:46;;;;;;;;;;;15.20;99.90;;;;;;1801528;79;20606;-66
2021/08/29 06:01:13;;;;;;;;;;;15.20;99.90;;;;;;1810695;79;20157;-68
2021/08/29 06:03:40;;;;;;;;;;;15.30;99.90;;;;;;1809263;78;20236;-68
2021/08/29 06:06:07;;;;;;;;;;;15.30;99.90;;;;;;1797392;79;20234;-68
2021/08/29 06:08:33;;;;;;;;;;;15.30;99.90;;;;;;1802528;79;20176;-68
2021/08/29 06:11:00;;;;;;;;;;;15.20;99.90;;;;;;1832104;78;20120;-68
2021/08/29 06:13:27;;;;;;;;;;;15.30;99.90;;;;;;1826935;78;20200;-68
2021/08/29 06:15:54;;;;;;;;;;;15.30;99.90;;;;;;1816127;79;20152;-68
2021/08/29 06:18:24;;;;;;;;;;;15.30;99.90;;;;;;1817533;79;20263;-68
2021/08/29 06:20:50;;;;;;;;;;;15.30;99.90;;;;;;1819596;78;20153;-68
2021/08/29 06:23:17;;;;;;;;;;;15.30;99.90;;;;;;1809535;79;20176;-68
2021/08/29 06:25:44;;;;;;;;;;;15.30;99.90;;;;;;1785705;79;20185;-69
2021/08/29 06:28:11;;;;;;;;;;;15.30;99.90;;;;;;1827865;78;20128;-69
2021/08/29 06:30:38;;;;;;;;;;;15.30;99.90;;;;;;1827628;78;20217;-69
2021/08/29 06:33:04;;;;;;;;;;;15.40;99.90;;;;;;1820069;78;20126;-68
2021/08/29 06:35:31;;;;;;;;;;;15.40;99.90;;;;;;1821667;78;20230;-68
2021/08/29 06:37:58;;;;;;;;;;;15.40;99.90;;;;;;1827731;78;20187;-68
2021/08/29 06:40:25;;;;;;;;;;;15.40;99.90;;;;;;1793919;78;20177;-68
2021/08/29 06:42:52;;;;;;;;;;;15.40;99.90;;;;;;1827859;78;20201;-68
2021/08/29 06:45:19;;;;;;;;;;;15.40;99.90;;;;;;1827465;78;20195;-68
2021/08/29 06:47:45;;;;;;;;;;;15.30;99.90;;;;;;1828662;78;20223;-68
2021/08/29 06:50:12;;;;;;;;;;;15.40;99.90;;;;;;1828225;78;20183;-68
2021/08/29 06:52:39;;;;;;;;;;;15.40;99.90;;;;;;1827846;78;20135;-68
2021/08/29 06:55:06;;;;;;;;;;;15.40;99.90;;;;;;1826073;77;20266;-68
2021/08/29 06:57:33;;;;;;;;;;;15.40;99.90;;;;;;1800713;78;20269;-68
2021/08/29 07:00:00;;;;;;;;;;;15.40;99.90;;;;;;1827360;77;20445;-68
2021/08/29 07:02:28;;;;;;;;;;;15.40;99.90;;;;;;1828370;78;20210;-68
2021/08/29 07:04:55;;;;;;;;;;;15.40;99.90;;;;;;1828316;78;20195;-68
2021/08/29 07:07:22;;;;;;;;;;;15.40;99.90;;;;;;1829083;78;20852;-68
2021/08/29 07:09:49;;;;;;;;;;;15.40;99.90;;;;;;1814831;78;20179;-68
2021/08/29 07:12:15;;;;;;;;;;;15.40;99.90;;;;;;1828757;78;20448;-68
2021/08/29 07:14:42;;;;;;;;;;;15.40;99.90;;;;;;1828270;78;20191;-68
2021/08/29 07:17:09;;;;;;;;;;;15.40;99.90;;;;;;1829199;78;20204;-68
2021/08/29 07:19:36;;;;;;;;;;;15.40;99.90;;;;;;1803833;78;20119;-68
2021/08/29 07:22:03;;;;;;;;;;;15.40;99.90;;;;;;1784873;79;20201;-68
2021/08/29 07:24:30;;;;;;;;;;;15.40;99.90;;;;;;1837395;78;20185;-68
2021/08/29 07:26:57;;;;;;;;;;;15.40;99.90;;;;;;1838868;78;20205;-68
2021/08/29 07:29:23;;;;;;;;;;;15.40;99.90;;;;;;1816409;78;20228;-68
2021/08/29 07:31:50;;;;;;;;;;;15.40;99.90;;;;;;1826464;78;20166;-69
2021/08/29 07:34:17;;;;;;;;;;;15.50;99.90;;;;;;1816255;79;20176;-68
2021/08/29 07:36:44;;;;;;;;;;;15.50;99.90;;;;;;1819602;79;20136;-69
2021/08/29 07:39:11;;;;;;;;;;;15.50;99.90;;;;;;1802732;79;20117;-68
2021/08/29 07:41:37;;;;;;;;;;;15.60;99.90;;;;;;1839878;78;20170;-69
2021/08/29 07:44:04;;;;;;;;;;;15.60;99.90;;;;;;1794571;80;20192;-69
2021/08/29 07:46:31;;;;;;;;;;;15.60;99.90;;;;;;1841391;78;20288;-69
2021/08/29 07:48:58;;;;;;;;;;;15.60;99.90;;;;;;1816594;78;20195;-69
2021/08/29 07:51:25;;;;;;;;;;;15.60;99.90;;;;;;1802154;80;20281;-69
2021/08/29 07:53:51;;;;;;;;;;;15.60;99.90;;;;;;1809651;79;20205;-69
2021/08/29 07:56:18;;;;;;;;;;;15.60;99.90;;;;;;1823254;78;20133;-69
2021/08/29 07:58:45;;;;;;;;;;;15.60;99.90;;;;;;1809005;79;20991;-68
2021/08/29 08:01:12;;;;;;;;;;;15.70;99.90;;;;;;1843151;78;20216;-69
2021/08/29 08:03:39;;;;;;;;;;;15.70;99.90;;;;;;1828126;78;20128;-69
2021/08/29 08:06:06;;;;;;;;;;;15.70;99.90;;;;;;1823811;78;20467;-69
2021/08/29 08:08:33;;;;;;;;;;;15.70;99.90;;;;;;1831722;76;20387;-70
2021/08/29 08:11:00;;;;;;;;;;;15.70;99.90;;;;;;1826784;78;20201;-69
2021/08/29 08:13:27;;;;;;;;;;;15.80;99.90;;;;;;1840033;76;20409;-69
2021/08/29 08:15:54;;;;;;;;;;;15.70;99.90;;;;;;1831138;78;20214;-68
2021/08/29 08:18:20;;;;;;;;;;;15.80;99.90;;;;;;1826843;78;20463;-68
2021/08/29 08:20:47;;;;;;;;;;;15.80;99.90;;;;;;1808439;78;20214;-69
2021/08/29 08:23:14;;;;;;;;;;;15.80;99.90;;;;;;1836167;77;20217;-68
2021/08/29 08:25:41;;;;;;;;;;;15.70;99.90;;;;;;1837743;77;20208;-69
2021/08/29 08:28:08;;;;;;;;;;;15.80;99.90;;;;;;1833223;78;20130;-68
2021/08/29 08:30:34;;;;;;;;;;;15.80;99.90;;;;;;1833421;76;20213;-68
2021/08/29 08:33:01;;;;;;;;;;;15.80;99.90;;;;;;1834980;76;20237;-70
2021/08/29 08:35:28;;;;;;;;;;;15.80;99.90;;;;;;1838013;76;20810;-71
2021/08/29 08:37:55;;;;;;;;;;;15.80;99.90;;;;;;1802168;78;20207;-70
2021/08/29 08:40:22;;;;;;;;;;;15.80;99.90;;;;;;1840815;76;20135;-70
2021/08/29 08:42:49;;;;;;;;;;;15.80;99.90;;;;;;1837329;78;20664;-70
2021/08/29 08:45:17;;;;;;;;;;;15.90;99.90;;;;;;1836253;78;20875;-70
2021/08/29 08:47:44;;;;;;;;;;;15.80;99.90;;;;;;1837786;78;20166;-70
2021/08/29 08:50:12;;;;;;;;;;;15.90;99.90;;;;;;1839662;78;20178;-70
2021/08/29 08:52:39;;;;;;;;;;;15.90;99.90;;;;;;1807189;79;20172;-70
2021/08/29 08:55:07;;;;;;;;;;;15.90;99.90;;;;;;1840142;77;20203;-70
2021/08/29 08:57:34;;;;;;;;;;;15.90;99.90;;;;;;1839017;77;20246;-70
2021/08/29 09:00:00;;;;;;;;;;;15.90;99.90;;;;;;1797477;78;20133;-70
2021/08/29 09:02:27;;;;;;;;;;;16.00;99.90;;;;;;1805147;78;20282;-70
2021/08/29 09:04:54;;;;;;;;;;;15.90;99.90;;;;;;1808448;78;20243;-70
2021/08/29 09:07:21;;;;;;;;;;;15.90;99.90;;;;;;1807597;79;20183;-70
2021/08/29 09:09:48;;;;;;;;;;;16.00;99.90;;;;;;1804891;78;20196;-70
2021/08/29 09:12:15;;;;;;;;;;;16.00;99.90;;;;;;1808451;78;20134;-70
2021/08/29 09:14:48;;;;;;;;;;;16.00;99.90;;;;;;1810239;78;20228;-70
2021/08/29 09:17:29;;;;;;;;;;;16.10;99.90;;;;;;1841056;77;20284;-70
2021/08/29 09:20:16;;;;;;;;;;;16.10;99.90;;;;;;1841422;76;20216;-70
2021/08/29 09:22:43;;;;;;;;;;;16.10;99.90;;;;;;1805208;78;20262;-70
2021/08/29 09:25:15;;;;;;;;;;;16.20;99.90;;;;;;1798063;78;20204;-70
2021/08/29 09:27:43;;;;;;;;;;;16.10;99.90;;;;;;1831588;78;20162;-68
2021/08/29 09:30:10;;;;;;;;;;;16.20;99.90;;;;;;1835541;77;20415;-68
2021/08/29 09:32:39;;;;;;;;;;;16.20;99.90;;;;;;1833821;78;20200;-68
2021/08/29 09:35:07;;;;;;;;;;;16.20;99.90;;;;;;1833299;78;20209;-66
2021/08/29 09:37:36;;;;;;;;;;;16.20;99.90;;;;;;1833894;78;20220;-66
2021/08/29 09:40:12;;;;;;;;;;;16.20;99.90;;;;;;1835401;77;20178;-66
2021/08/29 09:42:43;;;;;;;;;;;16.30;99.90;;;;;;1832853;78;20149;-66
2021/08/29 09:45:10;;;;;;;;;;;16.20;99.90;;;;;;1833883;78;20219;-67
2021/08/29 09:47:37;;;;;;;;;;;16.20;99.90;;;;;;1835363;78;20158;-67
2021/08/29 09:50:05;;;;;;;;;;;16.20;99.90;;;;;;1832067;78;20170;-67
2021/08/29 09:52:32;;;;;;;;;;;16.20;99.90;;;;;;1804804;79;20512;-67
2021/08/29 09:54:59;;;;;;;;;;;16.30;99.90;;;;;;1793968;79;20171;-67
2021/08/29 09:57:25;;;;;;;;;;;16.30;99.90;;;;;;1834462;78;20107;-67
2021/08/29 09:59:52;;;;;;;;;;;16.30;99.90;;;;;;1830281;77;20471;-67
2021/08/29 10:02:21;;;;;;;;;;;16.30;99.90;;;;;;1831980;78;20135;-67
2021/08/29 10:04:48;;;;;;;;;;;16.30;99.90;;;;;;1831978;78;20111;-67
2021/08/29 10:07:16;;;;;;;;;;;16.40;99.90;;;;;;1836491;77;20170;-67
2021/08/29 10:09:43;;;;;;;;;;;16.40;99.90;;;;;;1831982;78;20196;-67
2021/08/29 10:12:11;;;;;;;;;;;16.40;99.90;;;;;;1831828;78;20230;-67
2021/08/29 10:14:38;;;;;;;;;;;16.30;99.90;;;;;;1833014;78;20115;-67
2021/08/29 10:17:05;;;;;;;;;;;16.30;99.90;;;;;;1834836;78;20174;-67
2021/08/29 10:19:33;;;;;;;;;;;16.40;99.90;;;;;;1831863;77;20123;-67
2021/08/29 10:22:01;;;;;;;;;;;16.40;99.90;;;;;;1832880;76;20123;-67
2021/08/29 10:24:31;;;;;;;;;;;16.40;99.90;;;;;;1835912;78;20199;-67
2021/08/29 10:27:09;;;;;;;;;;;16.40;99.90;;;;;;1831440;77;20402;-67
2021/08/29 10:29:37;;;;;;;;;;;16.40;99.90;;;;;;1829942;78;20156;-67
2021/08/29 10:32:05;;;;;;;;;;;16.40;99.90;;;;;;1831697;78;20387;-67
2021/08/29 10:34:33;;;;;;;;;;;16.50;99.90;;;;;;1814051;77;20152;-67
2021/08/29 10:37:00;;;;;;;;;;;16.50;99.90;;;;;;1808700;78;20159;-67
2021/08/29 10:39:27;;;;;;;;;;;16.50;99.90;;;;;;1808601;78;20169;-67
2021/08/29 10:41:54;;;;;;;;;;;16.60;99.90;;;;;;1810899;78;20175;-67
2021/08/29 10:44:21;;;;;;;;;;;16.60;99.90;;;;;;1809184;78;20131;-67
2021/08/29 10:46:48;;;;;;;;;;;16.60;99.90;;;;;;1808641;78;20213;-67
2021/08/29 10:49:15;;;;;;;;;;;16.60;99.90;;;;;;1809799;78;20122;-67
2021/08/29 10:51:44;;;;;;;;;;;16.60;99.90;;;;;;1808860;78;20466;-67
2021/08/29 10:54:12;;;;;;;;;;;16.60;99.90;;;;;;1811822;78;20123;-67
2021/08/29 10:56:41;;;;;;;;;;;16.70;99.90;;;;;;1808943;78;20158;-67
2021/08/29 10:59:09;;;;;;;;;;;16.70;99.90;;;;;;1811723;78;20185;-67
2021/08/29 11:01:43;;;;;;;;;;;16.70;99.90;;;;;;1808117;78;20217;-67
2021/08/29 11:04:21;;;;;;;;;;;16.70;99.90;;;;;;1831102;77;20200;-68
2021/08/29 11:06:48;;;;;;;;;;;16.70;99.90;;;;;;1835910;77;20143;-72
2021/08/29 11:09:40;;;;;;;;;;;16.70;99.90;;;;;;1831372;78;20128;-67
2021/08/29 11:12:05;;;;;;;;;;;16.70;99.90;;;;;;1830944;78;20115;-67
2021/08/29 11:14:47;;;;;;;;;;;16.70;99.90;;;;;;1831777;78;20204;-68
2021/08/29 11:17:12;;;;;;;;;;;16.80;99.90;;;;;;1835663;77;20125;-68
2021/08/29 11:19:42;;;;;;;;;;;16.80;99.90;;;;;;1833055;78;20164;-68
2021/08/29 11:22:10;;;;;;;;;;;16.80;99.90;;;;;;1836129;77;20131;-68
2021/08/29 11:24:54;;;;;;;;;;;16.80;99.90;;;;;;1835658;77;20407;-68
2021/08/29 11:27:40;;;;;;;;;;;16.90;99.90;;;;;;1834745;78;20154;-68
2021/08/29 11:30:09;;;;;;;;;;;16.90;99.90;;;;;;1830685;78;20384;-68
2021/08/29 11:32:43;;;;;;;;;;;16.80;99.90;;;;;;1834792;78;20123;-68
2021/08/29 11:35:09;;;;;;;;;;;16.90;99.90;;;;;;1827444;78;20151;-68
2021/08/29 11:37:36;;;;;;;;;;;16.90;99.90;;;;;;1786915;78;20155;-68
2021/08/29 11:40:04;;;;;;;;;;;16.90;99.90;;;;;;1802399;78;20266;-68
2021/08/29 11:42:31;;;;;;;;;;;17.00;99.90;;;;;;1804720;79;20198;-68
2021/08/29 11:44:59;;;;;;;;;;;17.00;99.90;;;;;;1798875;79;20123;-68
2021/08/29 11:47:27;;;;;;;;;;;16.90;99.90;;;;;;1838145;77;20227;-68
2021/08/29 11:49:55;;;;;;;;;;;17.00;99.90;;;;;;1834492;76;20186;-68
2021/08/29 11:52:28;;;;;;;;;;;16.90;99.90;;;;;;1831408;78;20445;-68
2021/08/29 11:55:06;;;;;;;;;;;17.00;99.90;;;;;;1832171;76;20240;-69
2021/08/29 11:57:34;;;;;;;;;;;17.00;99.90;;;;;;1831858;76;20269;-68
2021/08/29 12:00:09;;;;;;;;;;;17.00;99.90;;;;;;1794531;79;20216;-68
2021/08/29 12:02:41;;;;;;;;;;;17.00;99.90;;;;;;1833706;78;20223;-68
2021/08/29 12:05:09;;;;;;;;;;;17.10;99.90;;;;;;1836804;78;20150;-68
2021/08/29 12:07:37;;;;;;;;;;;17.10;99.90;;;;;;1835399;77;20147;-68
2021/08/29 12:10:09;;;;;;;;;;;17.10;99.90;;;;;;1835157;77;20175;-68
2021/08/29 12:12:37;;;;;;;;;;;17.10;99.90;;;;;;1832923;78;20166;-68
2021/08/29 12:15:06;;;;;;;;;;;17.10;99.90;;;;;;1835393;78;20408;-68
2021/08/29 12:17:33;;;;;;;;;;;17.10;99.90;;;;;;1831651;78;20198;-68
2021/08/29 12:20:00;;;;;;;;;;;17.10;99.90;;;;;;1837421;78;20198;-68
2021/08/29 12:22:27;;;;;;;;;;;17.10;99.90;;;;;;1834325;78;20482;-68
2021/08/29 12:24:55;;;;;;;;;;;17.20;99.90;;;;;;1806869;78;20176;-68
2021/08/29 12:27:22;;;;;;;;;;;17.20;99.90;;;;;;1805119;78;20244;-68
2021/08/29 12:29:50;;;;;;;;;;;17.30;99.90;;;;;;1835846;76;20190;-68
2021/08/29 12:32:18;;;;;;;;;;;17.40;99.90;;;;;;1833400;78;20214;-68
2021/08/29 12:34:52;;;;;;;;;;;17.40;99.90;;;;;;1838569;77;20964;-67
2021/08/29 12:37:19;;;;;;;;;;;17.30;99.90;;;;;;1834551;78;20159;-68
2021/08/29 12:40:03;;;;;;;;;;;17.40;99.90;;;;;;1833416;78;20165;-68
2021/08/29 12:42:32;;;;;;;;;;;17.30;99.90;;;;;;1836100;76;20124;-68
2021/08/29 12:44:59;;;;;;;;;;;17.30;99.90;;;;;;1802904;78;20507;-68
2021/08/29 12:47:26;;;;;;;;;;;17.30;99.90;;;;;;1802051;78;20518;-68
2021/08/29 12:49:54;;;;;;;;;;;17.30;99.90;;;;;;1841401;76;20415;-68
2021/08/29 12:52:22;;;;;;;;;;;17.30;99.90;;;;;;1836897;78;20487;-68
2021/08/29 12:54:49;;;;;;;;;;;17.30;99.90;;;;;;1835170;78;20203;-68
2021/08/29 12:57:18;;;;;;;;;;;17.30;99.90;;;;;;1835547;76;20213;-68
2021/08/29 12:59:46;;;;;;;;;;;17.30;99.90;;;;;;1832490;77;20180;-68
2021/08/29 13:02:20;;;;;;;;;;;17.30;99.90;;;;;;1833232;77;20175;-68
2021/08/29 13:04:48;;;;;;;;;;;17.30;99.90;;;;;;1787448;79;20464;-68
2021/08/29 13:07:15;;;;;;;;;;;17.30;99.90;;;;;;1797318;78;20172;-68
2021/08/29 13:09:42;;;;;;;;;;;17.20;99.90;;;;;;1838221;76;20194;-68
2021/08/29 13:12:11;;;;;;;;;;;17.20;99.90;;;;;;1820882;77;20147;-68
2021/08/29 13:14:40;;;;;;;;;;;17.30;99.90;;;;;;1833483;78;20168;-69
2021/08/29 13:17:14;;;;;;;;;;;17.30;99.90;;;;;;1814668;77;20193;-68
2021/08/29 13:19:41;;;;;;;;;;;17.40;99.90;;;;;;1805541;78;20245;-68
2021/08/29 13:22:08;;;;;;;;;;;17.60;99.90;;;;;;1822582;77;20128;-68
2021/08/29 13:24:37;;;;;;;;;;;17.80;99.90;;;;;;1826638;77;20219;-67
2021/08/29 13:27:06;;;;;;;;;;;17.90;99.90;;;;;;1822594;77;20530;-67
2021/08/29 13:29:40;;;;;;;;;;;18.10;99.90;;;;;;1834113;76;20473;-67
2021/08/29 13:32:07;;;;;;;;;;;18.10;99.90;;;;;;1804469;78;20429;-67
2021/08/29 13:34:34;;;;;;;;;;;18.20;99.90;;;;;;1836133;77;20166;-67
2021/08/29 13:37:02;;;;;;;;;;;18.20;99.90;;;;;;1819333;77;20239;-68
2021/08/29 13:39:29;;;;;;;;;;;18.30;99.90;;;;;;1819118;77;20113;-68
2021/08/29 13:42:17;;;;;;;;;;;18.20;99.90;;;;;;1820558;77;20158;-67
2021/08/29 13:44:47;;;;;;;;;;;18.10;99.90;;;;;;1822386;77;20269;-67
2021/08/29 13:47:15;;;;;;;;;;;18.00;99.90;;;;;;1839975;76;20178;-67
2021/08/29 13:49:42;;;;;;;;;;;18.00;99.90;;;;;;1804745;78;20196;-67
2021/08/29 13:52:09;;;;;;;;;;;17.90;99.90;;;;;;1802924;79;20126;-68
2021/08/29 13:54:36;;;;;;;;;;;17.90;99.90;;;;;;1838848;77;20178;-68
2021/08/29 13:57:02;;;;;;;;;;;17.90;99.90;;;;;;1833964;78;20148;-68
2021/08/29 13:59:29;;;;;;;;;;;17.90;99.90;;;;;;1831924;78;20814;-67
2021/08/29 14:01:56;;;;;;;;;;;17.90;99.90;;;;;;1831552;78;20238;-68
2021/08/29 14:04:23;;;;;;;;;;;18.00;99.90;;;;;;1832777;78;20419;-68
2021/08/29 14:06:50;;;;;;;;;;;18.00;99.90;;;;;;1829461;78;20221;-68
2021/08/29 14:09:16;;;;;;;;;;;18.00;99.90;;;;;;1830628;77;20466;-67
2021/08/29 14:11:43;;;;;;;;;;;18.00;99.90;;;;;;1836350;77;20210;-67
2021/08/29 14:14:10;;;;;;;;;;;17.90;99.90;;;;;;1788703;79;20199;-68
2021/08/29 14:16:37;;;;;;;;;;;17.90;99.90;;;;;;1791858;79;20243;-67
2021/08/29 14:19:04;;;;;;;;;;;17.90;99.90;;;;;;1789497;79;20242;-67
2021/08/29 14:21:30;;;;;;;;;;;17.90;99.90;;;;;;1791922;78;20214;-66